createdAt,value
2023-05-24T00:00:00.214Z,1002.81
2023-05-24T00:05:00.434Z,1002.85
2023-05-24T00:10:00.223Z,1002.83
2023-05-24T00:15:00.197Z,1002.83
2023-05-24T00:20:00.221Z,1002.9
2023-05-24T00:25:00.167Z,1002.88
2023-05-24T00:30:00.162Z,1002.77
2023-05-24T00:35:00.196Z,1002.8
2023-05-24T00:40:00.247Z,1002.86
2023-05-24T00:45:00.188Z,1002.72
2023-05-24T00:50:00.197Z,1002.82
2023-05-24T00:55:00.168Z,1002.88
2023-05-24T01:00:00.202Z,1002.85
2023-05-24T01:05:00.197Z,1002.92
2023-05-24T01:10:00.204Z,1002.89
2023-05-24T01:15:00.158Z,1002.82
2023-05-24T01:20:00.349Z,1002.89
2023-05-24T01:25:00.251Z,1002.95
2023-05-24T01:30:00.262Z,1002.96
2023-05-24T01:35:00.189Z,1002.99
2023-05-24T01:40:00.245Z,1003.04
2023-05-24T01:45:00.198Z,1003.04
2023-05-24T01:50:00.152Z,1003.06
2023-05-24T01:55:00.248Z,1003.06
2023-05-24T02:00:00.226Z,1003.02
2023-05-24T02:05:00.177Z,1003.01
2023-05-24T02:10:00.161Z,1003.03
2023-05-24T02:15:00.202Z,1002.98
2023-05-24T02:20:00.280Z,1002.96
2023-05-24T02:25:00.178Z,1003
2023-05-24T02:30:00.241Z,1003.01
2023-05-24T02:35:00.158Z,1002.97
2023-05-24T02:40:00.149Z,1002.9
2023-05-24T02:45:00.245Z,1002.88
2023-05-24T02:50:00.166Z,1002.9
2023-05-24T02:55:00.179Z,1002.85
2023-05-24T03:00:00.192Z,1002.79
2023-05-24T03:05:00.201Z,1002.77
2023-05-24T03:10:00.188Z,1002.73
2023-05-24T03:15:00.199Z,1002.68
2023-05-24T03:20:00.242Z,1002.76
2023-05-24T03:25:00.211Z,1002.64
2023-05-24T03:30:00.216Z,1002.08
2023-05-24T03:35:00.142Z,1002.11
2023-05-24T03:40:00.186Z,1002.15
2023-05-24T03:45:00.202Z,1002.24
2023-05-24T03:50:00.176Z,1002.35
2023-05-24T03:55:00.184Z,1002.34
2023-05-24T04:00:00.246Z,1002.34
2023-05-24T04:05:00.204Z,1002.42
2023-05-24T04:10:00.191Z,1002.39
2023-05-24T04:15:00.146Z,1002.53
2023-05-24T04:20:00.193Z,1002.57
2023-05-24T04:25:00.388Z,1002.6
2023-05-24T04:30:00.167Z,1002.69
2023-05-24T04:35:00.150Z,1002.74
2023-05-24T04:40:00.191Z,1002.72
2023-05-24T04:45:00.220Z,1002.72
2023-05-24T04:50:00.208Z,1002.78
2023-05-24T04:55:00.189Z,1002.75
2023-05-24T05:00:00.209Z,1002.87
2023-05-24T05:05:00.190Z,1002.93
2023-05-24T05:10:00.214Z,1002.92
2023-05-24T05:15:00.192Z,1002.97
2023-05-24T05:20:00.268Z,1003.07
2023-05-24T05:25:00.191Z,1003.05
2023-05-24T05:30:00.204Z,1003.09
2023-05-24T05:35:00.199Z,1003.13
2023-05-24T05:40:00.267Z,1003.15
2023-05-24T05:45:00.223Z,1003.16
2023-05-24T05:50:00.220Z,1003.12
2023-05-24T05:55:00.152Z,1003.14
2023-05-24T06:00:00.199Z,1003.06
2023-05-24T06:05:00.374Z,1003.1
2023-05-24T06:10:00.219Z,1003.13
2023-05-24T06:15:00.180Z,1003.13
2023-05-24T06:20:00.292Z,1003.19
2023-05-24T06:25:00.179Z,1003.31
2023-05-24T06:30:00.259Z,1003.33
2023-05-24T06:35:00.172Z,1003.36
2023-05-24T06:40:00.204Z,1003.31
2023-05-24T06:45:00.207Z,1003.4
2023-05-24T06:50:00.173Z,1003.46
2023-05-24T06:55:00.175Z,1003.48
2023-05-24T07:00:00.154Z,1003.58
2023-05-24T07:05:00.302Z,1003.46
2023-05-24T07:10:00.208Z,1003.53
2023-05-24T07:15:00.157Z,1003.53
2023-05-24T07:20:00.259Z,1003.53
2023-05-24T07:25:00.206Z,1003.59
2023-05-24T07:30:00.247Z,1003.56
2023-05-24T07:35:00.205Z,1003.5
2023-05-24T07:40:00.174Z,1003.59
2023-05-24T07:45:00.192Z,1003.58
2023-05-24T07:50:00.177Z,1003.55
2023-05-24T07:55:00.150Z,1003.53
2023-05-24T08:00:00.305Z,1003.56
2023-05-24T08:05:00.184Z,1003.66
2023-05-24T08:10:00.185Z,1003.67
2023-05-24T08:15:00.197Z,1003.67
2023-05-24T08:20:00.310Z,1003.59
2023-05-24T08:25:00.316Z,1003.65
2023-05-24T08:30:00.235Z,1003.64
2023-05-24T08:35:10.989Z,1003.72
2023-05-24T08:40:00.173Z,1003.78
2023-05-24T08:45:00.265Z,1003.67
2023-05-24T08:50:00.182Z,1003.6
2023-05-24T08:55:00.181Z,1003.68
2023-05-24T09:00:00.157Z,1003.67
2023-05-24T09:05:00.233Z,1003.71
2023-05-24T09:10:00.195Z,1003.76
2023-05-24T09:15:00.165Z,1003.86
2023-05-24T09:20:00.297Z,1003.89
2023-05-24T09:25:00.181Z,1003.93
2023-05-24T09:30:00.255Z,1003.84
2023-05-24T09:35:00.248Z,1003.84
2023-05-24T09:40:00.310Z,1003.78
2023-05-24T09:45:00.152Z,1003.79
2023-05-24T09:50:00.225Z,1003.81
2023-05-24T09:55:00.220Z,1003.84
2023-05-24T10:00:00.226Z,1003.86
2023-05-24T10:05:00.277Z,1003.94
2023-05-24T10:10:00.238Z,1003.93
2023-05-24T10:15:00.195Z,1003.92
2023-05-24T10:20:00.276Z,1003.87
2023-05-24T10:25:00.218Z,1004
2023-05-24T10:30:00.264Z,1003.99
2023-05-24T10:35:00.147Z,1004.12
2023-05-24T10:40:00.185Z,1004.13
2023-05-24T10:45:00.306Z,1004.09
2023-05-24T10:50:00.238Z,1004.08
2023-05-24T10:55:03.691Z,1004.1
2023-05-24T11:00:00.265Z,1004.15
2023-05-24T11:05:00.324Z,1004.21
2023-05-24T11:10:00.199Z,1004.15
2023-05-24T11:15:00.149Z,1004.24
2023-05-24T11:20:00.212Z,1004.2
2023-05-24T11:25:00.226Z,1004.23
2023-05-24T11:30:00.174Z,1004.06
2023-05-24T11:35:00.208Z,1004.1
2023-05-24T11:40:00.160Z,1004.09
2023-05-24T11:45:00.199Z,1004.07
2023-05-24T11:50:00.169Z,1004.07
2023-05-24T11:55:00.163Z,1004.1
2023-05-24T12:00:00.234Z,1004.02
2023-05-24T12:05:00.462Z,1004.04
2023-05-24T12:10:00.225Z,1004.14
2023-05-24T12:15:00.183Z,1004.14
2023-05-24T12:20:00.484Z,1004.1
2023-05-24T12:25:00.188Z,1004.14
2023-05-24T12:30:00.240Z,1004.12
2023-05-24T12:35:00.224Z,1004.04
2023-05-24T12:40:00.208Z,1004.02
2023-05-24T12:45:00.155Z,1004.08
2023-05-24T12:50:00.279Z,1004.01
2023-05-24T12:55:00.148Z,1004
2023-05-24T13:00:00.294Z,1003.92
2023-05-24T13:05:00.257Z,1003.98
2023-05-24T13:10:00.252Z,1004.04
2023-05-24T13:15:00.162Z,1003.93
2023-05-24T13:20:00.217Z,1004.04
2023-05-24T13:25:00.181Z,1004.06
2023-05-24T13:30:01.432Z,1004.01
2023-05-24T13:35:00.234Z,1003.92
2023-05-24T13:40:00.277Z,1003.98
2023-05-24T13:45:00.219Z,1003.95
2023-05-24T13:50:00.172Z,1004
2023-05-24T13:55:00.150Z,1003.91
2023-05-24T14:00:00.320Z,1003.94
2023-05-24T14:05:13.794Z,1003.97
2023-05-24T14:10:00.214Z,1003.88
2023-05-24T14:15:00.487Z,1003.84
2023-05-24T14:20:00.236Z,1003.98
2023-05-24T14:25:00.157Z,1003.91
2023-05-24T14:30:00.226Z,1003.94
2023-05-24T14:35:00.138Z,1003.84
2023-05-24T14:40:00.449Z,1003.85
2023-05-24T14:45:00.172Z,1003.86
2023-05-24T14:50:00.253Z,1003.88
2023-05-24T14:55:00.158Z,1003.84
2023-05-24T15:00:00.213Z,1003.79
2023-05-24T15:05:00.257Z,1003.8
2023-05-24T15:10:00.222Z,1003.84
2023-05-24T15:15:00.183Z,1003.82
2023-05-24T15:20:00.176Z,1003.82
2023-05-24T15:25:00.226Z,1003.91
2023-05-24T15:30:00.268Z,1003.85
2023-05-24T15:35:00.411Z,1003.82
2023-05-24T15:40:00.189Z,1003.84
2023-05-24T15:45:00.178Z,1003.88
2023-05-24T15:50:00.173Z,1003.88
2023-05-24T15:55:00.230Z,1003.79
2023-05-24T16:00:00.216Z,1003.93
2023-05-24T16:05:00.235Z,1003.89
2023-05-24T16:10:00.198Z,1003.87
2023-05-24T16:15:00.155Z,1003.9
2023-05-24T16:20:00.239Z,1003.84
2023-05-24T16:25:00.247Z,1003.9
2023-05-24T16:30:00.163Z,1003.89
2023-05-24T16:35:00.156Z,1003.89
2023-05-24T16:40:00.171Z,1003.94
2023-05-24T16:45:00.166Z,1003.96
2023-05-24T16:50:00.226Z,1003.93
2023-05-24T16:55:00.179Z,1003.97
2023-05-24T17:00:00.274Z,1003.93
2023-05-24T17:05:00.213Z,1004.03
2023-05-24T17:10:00.217Z,1004.09
2023-05-24T17:15:00.194Z,1004.11
2023-05-24T17:20:00.290Z,1004.07
2023-05-24T17:25:00.229Z,1004.06
2023-05-24T17:30:00.337Z,1004.06
2023-05-24T17:35:00.254Z,1004.01
2023-05-24T17:40:00.157Z,1004.04
2023-05-24T17:45:00.219Z,1004.12
2023-05-24T17:50:00.242Z,1004.13
2023-05-24T17:55:00.180Z,1004.16
2023-05-24T18:00:00.195Z,1004.17
2023-05-24T18:05:00.219Z,1004.4
2023-05-24T18:10:00.633Z,1004.33
2023-05-24T18:15:00.173Z,1004.3
2023-05-24T18:20:00.289Z,1004.31
2023-05-24T18:25:00.291Z,1004.35
2023-05-24T18:30:00.216Z,1004.41
2023-05-24T18:35:00.164Z,1004.36
2023-05-24T18:40:00.155Z,1004.43
2023-05-24T18:45:00.229Z,1004.46
2023-05-24T18:50:00.196Z,1004.53
2023-05-24T18:55:00.162Z,1004.47
2023-05-24T19:00:00.197Z,1004.58
2023-05-24T19:05:00.191Z,1004.65
2023-05-24T19:10:00.157Z,1004.63
2023-05-24T19:15:00.205Z,1004.63
2023-05-24T19:20:00.281Z,1004.71
2023-05-24T19:25:00.157Z,1004.77
2023-05-24T19:30:00.289Z,1004.78
2023-05-24T19:35:00.129Z,1004.87
2023-05-24T19:40:00.159Z,1004.85
2023-05-24T19:45:00.368Z,1004.9
2023-05-24T19:50:00.224Z,1004.87
2023-05-24T19:55:00.138Z,1004.94
2023-05-24T20:00:00.214Z,1005.09
2023-05-24T20:05:00.240Z,1005.11
2023-05-24T20:10:00.184Z,1005.24
2023-05-24T20:15:00.167Z,1005.28
2023-05-24T20:20:00.192Z,1005.28
2023-05-24T20:25:00.210Z,1005.38
2023-05-24T20:30:00.173Z,1005.82
2023-05-24T20:35:00.199Z,1005.8
2023-05-24T20:40:00.176Z,1005.91
2023-05-24T20:45:00.205Z,1005.94
2023-05-24T20:50:00.201Z,1006.01
2023-05-24T20:55:00.147Z,1005.98
2023-05-24T21:00:00.169Z,1006.01
2023-05-24T21:05:00.164Z,1006.08
2023-05-24T21:10:00.174Z,1006.14
2023-05-24T21:15:00.219Z,1006.2
2023-05-24T21:20:00.254Z,1006.24
2023-05-24T21:25:00.207Z,1006.33
2023-05-24T21:30:00.251Z,1006.35
2023-05-24T21:35:00.195Z,1006.35
2023-05-24T21:40:00.175Z,1006.35
2023-05-24T21:45:00.218Z,1006.42
2023-05-24T21:50:00.185Z,1006.45
2023-05-24T21:55:00.146Z,1006.52
2023-05-24T22:00:00.198Z,1006.58
2023-05-24T22:05:00.191Z,1006.49
2023-05-24T22:10:00.211Z,1006.5
2023-05-24T22:15:00.163Z,1006.5
2023-05-24T22:20:00.246Z,1006.57
2023-05-24T22:25:00.266Z,1006.58
2023-05-24T22:30:00.243Z,1006.42
2023-05-24T22:35:00.139Z,1006.48
2023-05-24T22:40:00.194Z,1006.47
2023-05-24T22:45:00.223Z,1006.47
2023-05-24T22:50:00.179Z,1006.5
2023-05-24T22:55:00.158Z,1006.5
2023-05-24T23:00:00.192Z,1006.57
2023-05-24T23:05:00.465Z,1006.55
2023-05-24T23:10:00.205Z,1006.52
2023-05-24T23:15:00.148Z,1006.55
2023-05-24T23:20:00.291Z,1006.46
2023-05-24T23:25:00.165Z,1006.59
2023-05-24T23:30:00.195Z,1006.52
2023-05-24T23:35:00.261Z,1006.55
2023-05-24T23:40:00.158Z,1006.59
2023-05-24T23:45:00.159Z,1006.58
2023-05-24T23:50:00.186Z,1006.65
2023-05-24T23:55:00.166Z,1006.65
